createdAt,value
2018-10-19T14:53:44.181Z,75.52
2018-10-19T14:57:04.856Z,76.67
2018-10-19T15:02:17.462Z,75.82
2018-10-19T15:05:38.117Z,75.26
2018-10-19T15:12:25.373Z,76.30
2018-10-19T15:15:45.957Z,76.25
2018-10-19T15:19:06.567Z,76.51
2018-10-19T15:22:27.161Z,77.22
2018-10-19T15:25:47.783Z,75.26
2018-10-19T15:29:08.404Z,75.61
2018-10-19T15:32:28.972Z,77.84
2018-10-19T15:35:50.181Z,78.42
2018-10-19T15:39:10.829Z,77.67
2018-10-19T15:42:31.489Z,78.18
2018-10-19T15:45:52.081Z,77.41
2018-10-19T15:49:12.746Z,75.63
2018-10-19T15:52:33.347Z,75.98
2018-10-19T15:55:54.010Z,77.33
2018-10-19T15:59:14.598Z,76.67
2018-10-19T16:02:35.204Z,75.64
2018-10-19T16:05:55.840Z,75.77
2018-10-19T16:09:16.438Z,77.41
2018-10-19T16:12:37.136Z,77.35
2018-10-19T16:15:57.713Z,76.82
2018-10-19T16:19:19.222Z,76.81
2018-10-19T16:22:39.825Z,77.80
2018-10-19T16:26:00.426Z,78.12
2018-10-19T16:29:21.083Z,78.48
2018-10-19T16:32:41.758Z,78.29
2018-10-19T16:36:02.371Z,78.44
2018-10-19T16:39:22.958Z,78.09
2018-10-19T16:42:43.550Z,77.38
2018-10-19T16:46:04.161Z,77.12
2018-10-19T16:49:24.737Z,77.62
2018-10-19T16:52:45.383Z,77.39
2018-10-19T16:56:05.955Z,77.42
2018-10-19T16:59:26.572Z,79.30
2018-10-19T17:02:47.323Z,77.75
2018-10-19T17:06:07.922Z,76.89
2018-10-19T17:09:28.449Z,77.53
2018-10-19T17:12:49.027Z,78.79
2018-10-19T17:16:09.652Z,80.14
2018-10-19T17:19:30.274Z,79.38
2018-10-19T17:22:50.889Z,79.14
2018-10-19T17:26:11.447Z,79.24
2018-10-19T17:29:32.011Z,77.75
2018-10-19T17:32:52.774Z,78.98
2018-10-19T17:36:13.451Z,77.73
2018-10-19T17:39:34.073Z,77.54
2018-10-19T17:42:54.743Z,77.21
2018-10-19T17:46:15.324Z,78.77
2018-10-19T17:49:35.909Z,78.73
2018-10-19T17:52:56.529Z,76.98
2018-10-19T17:56:17.079Z,77.87
2018-10-19T17:59:37.680Z,76.51
2018-10-19T18:02:58.249Z,77.83
2018-10-19T18:06:18.883Z,78.86
2018-10-19T18:09:39.496Z,78.68
2018-10-19T18:13:00.101Z,77.13
2018-10-19T18:16:21.757Z,76.44
2018-10-19T18:19:42.418Z,77.16
2018-10-19T18:23:03.155Z,76.97
2018-10-19T18:26:24.617Z,78.11
2018-10-19T19:51:28.254Z,86.94
2018-10-19T19:54:48.858Z,84.50
2018-10-19T19:58:09.450Z,83.68
2018-10-19T20:01:30.050Z,83.25
2018-10-19T20:04:51.742Z,83.54
2018-10-19T20:08:12.421Z,84.34
2018-10-19T20:11:33.070Z,84.55
2018-10-19T20:14:53.695Z,83.70
2018-10-19T20:18:14.275Z,84.63
2018-10-19T20:21:34.844Z,84.90
2018-10-19T20:24:55.534Z,85.42
2018-10-19T20:28:16.205Z,86.94
2018-10-19T20:31:37.693Z,87.45
2018-10-19T20:34:58.376Z,87.96
2018-10-19T20:38:18.932Z,87.10
2018-10-19T20:41:39.517Z,89.03
2018-10-19T20:45:00.123Z,86.85
2018-10-19T20:48:20.753Z,89.37
2018-10-19T20:51:41.321Z,88.70
2018-10-19T20:55:01.936Z,89.36
2018-10-19T20:58:22.529Z,89.13
2018-10-19T21:01:43.149Z,88.44
2018-10-19T21:05:06.531Z,89.01
2018-10-19T21:08:28.343Z,89.19
2018-10-19T21:11:48.934Z,89.77
2018-10-19T21:15:09.578Z,89.75
2018-10-19T21:18:30.224Z,89.33
2018-10-19T21:21:50.845Z,89.65
2018-10-19T21:25:11.486Z,90.35
2018-10-19T21:28:32.052Z,89.40
2018-10-19T21:31:52.640Z,89.21
2018-10-19T21:35:13.351Z,90.13
2018-10-19T21:38:33.872Z,88.69
2018-10-19T21:41:54.456Z,90.17
2018-10-19T21:45:15.042Z,89.27
2018-10-19T21:48:35.666Z,92.28
2018-10-19T21:51:56.251Z,92.38
2018-10-19T21:55:16.840Z,90.46
2018-10-19T21:58:37.387Z,91.83
2018-10-19T22:01:58.095Z,93.02
2018-10-19T22:05:18.658Z,94.71
2018-10-19T22:08:39.381Z,94.90
2018-10-19T22:11:59.979Z,94.87
2018-10-19T22:15:21.586Z,98.04
2018-10-19T22:18:42.128Z,95.56
2018-10-19T22:22:02.801Z,94.22
2018-10-19T22:25:23.528Z,95.43
2018-10-19T22:28:44.111Z,93.04
2018-10-19T22:32:04.857Z,92.61
2018-10-19T22:35:25.504Z,93.52
2018-10-19T22:38:46.103Z,89.49
2018-10-19T22:42:06.701Z,90.91
2018-10-19T22:45:27.330Z,93.31
2018-10-19T22:48:48.937Z,91.79
2018-10-19T22:52:09.526Z,93.39
2018-10-19T22:55:30.133Z,93.09
2018-10-19T22:58:50.705Z,93.08
2018-10-19T23:02:13.286Z,93.94
2018-10-19T23:05:35.932Z,93.84
2018-10-19T23:08:57.514Z,94.12
2018-10-19T23:12:18.184Z,92.09
2018-10-19T23:15:38.758Z,91.22
2018-10-19T23:19:00.360Z,90.05
2018-10-19T23:22:21.024Z,90.62
2018-10-19T23:25:41.585Z,92.89
2018-10-19T23:29:02.233Z,95.24
2018-10-19T23:32:22.790Z,92.52
2018-10-19T23:35:43.360Z,95.07
2018-10-19T23:39:03.994Z,96.96
2018-10-19T23:42:24.590Z,95.19
2018-10-19T23:45:46.162Z,94.60
2018-10-19T23:49:06.865Z,94.08
2018-10-19T23:52:27.425Z,94.39
2018-10-19T23:55:48.032Z,92.51
2018-10-19T23:59:08.634Z,93.04
